sensor_id;sensor_type;location;lat;lon;timestamp;pressure;altitude;pressure_sealevel;temperature;humidity
37066;BME280;22981;43.080;25.550;2023-09-30T00:02:04;99934.60;;;15.38;60.59
37066;BME280;22981;43.080;25.550;2023-09-30T00:04:32;99924.75;;;15.32;60.70
37066;BME280;22981;43.080;25.550;2023-09-30T00:06:59;99923.59;;;15.28;60.80
37066;BME280;22981;43.080;25.550;2023-09-30T00:09:27;99923.56;;;15.25;60.94
37066;BME280;22981;43.080;25.550;2023-09-30T00:11:55;99917.72;;;15.17;61.10
37066;BME280;22981;43.080;25.550;2023-09-30T00:14:22;99921.31;;;15.08;61.20
37066;BME280;22981;43.080;25.550;2023-09-30T00:16:50;99921.19;;;15.03;61.25
37066;BME280;22981;43.080;25.550;2023-09-30T00:19:17;99920.34;;;15.00;61.28
37066;BME280;22981;43.080;25.550;2023-09-30T00:21:45;99919.52;;;14.99;61.23
37066;BME280;22981;43.080;25.550;2023-09-30T00:24:12;99919.45;;;14.97;61.25
37066;BME280;22981;43.080;25.550;2023-09-30T00:26:40;99916.69;;;14.94;61.33
37066;BME280;22981;43.080;25.550;2023-09-30T00:29:08;99916.66;;;14.92;61.43
37066;BME280;22981;43.080;25.550;2023-09-30T00:31:36;99915.77;;;14.89;61.49
37066;BME280;22981;43.080;25.550;2023-09-30T00:34:04;99915.20;;;14.87;61.59
37066;BME280;22981;43.080;25.550;2023-09-30T00:36:32;99911.63;;;14.84;61.62
37066;BME280;22981;43.080;25.550;2023-09-30T00:38:59;99915.06;;;14.82;61.64
37066;BME280;22981;43.080;25.550;2023-09-30T00:41:27;99908.29;;;14.79;61.65
37066;BME280;22981;43.080;25.550;2023-09-30T00:43:54;99910.98;;;14.79;61.61
37066;BME280;22981;43.080;25.550;2023-09-30T00:46:30;99909.36;;;14.78;61.65
37066;BME280;22981;43.080;25.550;2023-09-30T00:48:59;99914.21;;;14.78;61.65
37066;BME280;22981;43.080;25.550;2023-09-30T00:51:27;99911.98;;;14.75;61.64
37066;BME280;22981;43.080;25.550;2023-09-30T00:53:57;99916.55;;;14.75;61.68
37066;BME280;22981;43.080;25.550;2023-09-30T00:56:27;99916.02;;;14.75;61.66
37066;BME280;22981;43.080;25.550;2023-09-30T00:58:56;99919.00;;;14.76;61.61
37066;BME280;22981;43.080;25.550;2023-09-30T01:01:24;99914.11;;;14.73;61.67
37066;BME280;22981;43.080;25.550;2023-09-30T01:03:51;99909.17;;;14.70;61.71
37066;BME280;22981;43.080;25.550;2023-09-30T01:06:19;99913.11;;;14.65;61.77
37066;BME280;22981;43.080;25.550;2023-09-30T01:08:47;99907.94;;;14.64;61.80
37066;BME280;22981;43.080;25.550;2023-09-30T01:11:15;99910.06;;;14.62;61.78
37066;BME280;22981;43.080;25.550;2023-09-30T01:13:42;99908.43;;;14.61;61.71
37066;BME280;22981;43.080;25.550;2023-09-30T01:16:11;99914.64;;;14.61;61.70
37066;BME280;22981;43.080;25.550;2023-09-30T01:18:40;99910.28;;;14.60;61.72
37066;BME280;22981;43.080;25.550;2023-09-30T01:21:09;99911.88;;;14.59;61.74
37066;BME280;22981;43.080;25.550;2023-09-30T01:23:37;99915.91;;;14.59;61.75
37066;BME280;22981;43.080;25.550;2023-09-30T01:26:09;99918.08;;;14.59;61.80
37066;BME280;22981;43.080;25.550;2023-09-30T01:28:39;99915.52;;;14.52;61.83
37066;BME280;22981;43.080;25.550;2023-09-30T01:31:07;99920.41;;;14.44;61.95
37066;BME280;22981;43.080;25.550;2023-09-30T01:33:35;99920.26;;;14.39;62.02
37066;BME280;22981;43.080;25.550;2023-09-30T01:36:03;99922.84;;;14.34;62.09
37066;BME280;22981;43.080;25.550;2023-09-30T01:38:30;99918.22;;;14.32;62.10
37066;BME280;22981;43.080;25.550;2023-09-30T01:40:58;99917.09;;;14.30;62.12
37066;BME280;22981;43.080;25.550;2023-09-30T01:43:25;99922.72;;;14.28;62.15
37066;BME280;22981;43.080;25.550;2023-09-30T01:45:53;99917.34;;;14.28;62.21
37066;BME280;22981;43.080;25.550;2023-09-30T01:48:21;99918.39;;;14.27;62.24
37066;BME280;22981;43.080;25.550;2023-09-30T01:50:48;99919.74;;;14.27;62.24
37066;BME280;22981;43.080;25.550;2023-09-30T01:53:16;99916.23;;;14.27;62.32
37066;BME280;22981;43.080;25.550;2023-09-30T01:55:43;99922.97;;;14.27;62.44
37066;BME280;22981;43.080;25.550;2023-09-30T01:58:11;99916.23;;;14.27;62.48
37066;BME280;22981;43.080;25.550;2023-09-30T02:00:39;99918.11;;;14.26;62.47
37066;BME280;22981;43.080;25.550;2023-09-30T02:03:06;99916.97;;;14.25;62.55
37066;BME280;22981;43.080;25.550;2023-09-30T02:05:34;99915.63;;;14.25;62.62
37066;BME280;22981;43.080;25.550;2023-09-30T02:08:03;99914.53;;;14.23;62.65
37066;BME280;22981;43.080;25.550;2023-09-30T02:10:32;99919.91;;;14.23;62.65
37066;BME280;22981;43.080;25.550;2023-09-30T02:13:02;99916.86;;;14.20;62.69
37066;BME280;22981;43.080;25.550;2023-09-30T02:15:39;99920.77;;;14.15;62.81
37066;BME280;22981;43.080;25.550;2023-09-30T02:18:10;99920.30;;;14.06;62.73
37066;BME280;22981;43.080;25.550;2023-09-30T02:20:39;99925.36;;;13.93;62.77
37066;BME280;22981;43.080;25.550;2023-09-30T02:23:11;99924.91;;;13.87;62.82
37066;BME280;22981;43.080;25.550;2023-09-30T02:25:43;99921.41;;;13.87;62.84
37066;BME280;22981;43.080;25.550;2023-09-30T02:28:11;99916.80;;;13.85;62.80
37066;BME280;22981;43.080;25.550;2023-09-30T02:30:42;99920.70;;;13.80;62.83
37066;BME280;22981;43.080;25.550;2023-09-30T02:33:11;99919.20;;;13.74;62.86
37066;BME280;22981;43.080;25.550;2023-09-30T02:35:44;99923.77;;;13.74;62.89
37066;BME280;22981;43.080;25.550;2023-09-30T02:38:11;99921.07;;;13.74;62.89
37066;BME280;22981;43.080;25.550;2023-09-30T02:40:42;99919.97;;;13.72;62.76
37066;BME280;22981;43.080;25.550;2023-09-30T02:43:14;99915.80;;;13.67;62.80
37066;BME280;22981;43.080;25.550;2023-09-30T02:45:44;99923.59;;;13.66;62.88
37066;BME280;22981;43.080;25.550;2023-09-30T02:48:15;99917.06;;;13.65;62.90
37066;BME280;22981;43.080;25.550;2023-09-30T02:50:43;99916.25;;;13.64;62.93
37066;BME280;22981;43.080;25.550;2023-09-30T02:53:11;99925.59;;;13.62;63.01
37066;BME280;22981;43.080;25.550;2023-09-30T02:55:42;99922.84;;;13.59;63.06
37066;BME280;22981;43.080;25.550;2023-09-30T02:58:10;99923.66;;;13.60;63.08
37066;BME280;22981;43.080;25.550;2023-09-30T03:00:38;99921.21;;;13.58;63.08
37066;BME280;22981;43.080;25.550;2023-09-30T03:03:06;99925.25;;;13.58;63.12
37066;BME280;22981;43.080;25.550;2023-09-30T03:05:33;99923.00;;;13.55;63.13
37066;BME280;22981;43.080;25.550;2023-09-30T03:08:01;99921.52;;;13.50;63.13
37066;BME280;22981;43.080;25.550;2023-09-30T03:10:29;99925.34;;;13.42;63.18
37066;BME280;22981;43.080;25.550;2023-09-30T03:12:57;99924.59;;;13.35;63.21
37066;BME280;22981;43.080;25.550;2023-09-30T03:15:27;99928.05;;;13.33;63.31
37066;BME280;22981;43.080;25.550;2023-09-30T03:17:56;99924.75;;;13.31;63.31
37066;BME280;22981;43.080;25.550;2023-09-30T03:20:24;99927.67;;;13.30;63.40
37066;BME280;22981;43.080;25.550;2023-09-30T03:22:52;99942.99;;;13.29;63.50
37066;BME280;22981;43.080;25.550;2023-09-30T03:25:21;99940.30;;;13.29;63.54
37066;BME280;22981;43.080;25.550;2023-09-30T03:27:49;99943.23;;;13.27;63.57
37066;BME280;22981;43.080;25.550;2023-09-30T03:30:17;99945.42;;;13.21;63.54
37066;BME280;22981;43.080;25.550;2023-09-30T03:32:46;99949.76;;;13.13;63.57
37066;BME280;22981;43.080;25.550;2023-09-30T03:35:14;99946.55;;;13.04;63.75
37066;BME280;22981;43.080;25.550;2023-09-30T03:37:44;99946.25;;;13.03;63.82
37066;BME280;22981;43.080;25.550;2023-09-30T03:40:12;99948.71;;;13.05;63.82
37066;BME280;22981;43.080;25.550;2023-09-30T03:42:42;99946.02;;;13.05;63.82
37066;BME280;22981;43.080;25.550;2023-09-30T03:45:10;99942.81;;;13.06;63.80
37066;BME280;22981;43.080;25.550;2023-09-30T03:47:41;99949.53;;;13.06;63.78
37066;BME280;22981;43.080;25.550;2023-09-30T03:50:10;99954.55;;;13.02;63.87
37066;BME280;22981;43.080;25.550;2023-09-30T03:52:39;99943.48;;;13.01;63.91
37066;BME280;22981;43.080;25.550;2023-09-30T03:55:09;99944.30;;;13.01;63.87
37066;BME280;22981;43.080;25.550;2023-09-30T03:57:38;99943.80;;;13.02;63.84
37066;BME280;22981;43.080;25.550;2023-09-30T04:00:06;99945.14;;;13.02;63.86
37066;BME280;22981;43.080;25.550;2023-09-30T04:02:36;99940.21;;;12.99;63.90
37066;BME280;22981;43.080;25.550;2023-09-30T04:05:03;99946.78;;;12.94;64.01
37066;BME280;22981;43.080;25.550;2023-09-30T04:07:32;99945.88;;;12.91;64.04
37066;BME280;22981;43.080;25.550;2023-09-30T04:09:59;99949.00;;;12.88;64.07
37066;BME280;22981;43.080;25.550;2023-09-30T04:12:30;99947.66;;;12.88;64.01
37066;BME280;22981;43.080;25.550;2023-09-30T04:14:59;99941.70;;;12.86;64.00
37066;BME280;22981;43.080;25.550;2023-09-30T04:17:27;99936.67;;;12.80;64.04
37066;BME280;22981;43.080;25.550;2023-09-30T04:19:54;99938.48;;;12.77;64.21
37066;BME280;22981;43.080;25.550;2023-09-30T04:22:22;99939.06;;;12.79;64.22
37066;BME280;22981;43.080;25.550;2023-09-30T04:24:51;99946.08;;;12.80;64.18
37066;BME280;22981;43.080;25.550;2023-09-30T04:27:19;99954.66;;;12.79;64.19
37066;BME280;22981;43.080;25.550;2023-09-30T04:29:46;99959.52;;;12.80;64.21
37066;BME280;22981;43.080;25.550;2023-09-30T04:32:15;99956.82;;;12.80;64.26
37066;BME280;22981;43.080;25.550;2023-09-30T04:34:43;99962.72;;;12.79;64.26
37066;BME280;22981;43.080;25.550;2023-09-30T04:37:12;99961.31;;;12.77;64.38
37066;BME280;22981;43.080;25.550;2023-09-30T04:39:40;99963.09;;;12.74;64.49
37066;BME280;22981;43.080;25.550;2023-09-30T04:42:07;99963.33;;;12.72;64.53
37066;BME280;22981;43.080;25.550;2023-09-30T04:44:37;99968.84;;;12.68;64.63
37066;BME280;22981;43.080;25.550;2023-09-30T04:47:05;99970.19;;;12.68;64.74
37066;BME280;22981;43.080;25.550;2023-09-30T04:49:32;99976.77;;;12.72;64.82
37066;BME280;22981;43.080;25.550;2023-09-30T04:52:00;99970.78;;;12.79;64.78
37066;BME280;22981;43.080;25.550;2023-09-30T04:54:28;99975.28;;;12.86;64.88
37066;BME280;22981;43.080;25.550;2023-09-30T04:56:55;99977.36;;;12.93;64.88
37066;BME280;22981;43.080;25.550;2023-09-30T04:59:23;99980.23;;;12.98;64.89
37066;BME280;22981;43.080;25.550;2023-09-30T05:01:51;99979.03;;;12.94;65.14
37066;BME280;22981;43.080;25.550;2023-09-30T05:04:19;99974.62;;;12.90;65.11
37066;BME280;22981;43.080;25.550;2023-09-30T05:06:47;99975.28;;;12.86;65.14
37066;BME280;22981;43.080;25.550;2023-09-30T05:09:14;99977.30;;;12.81;65.12
37066;BME280;22981;43.080;25.550;2023-09-30T05:11:42;99980.42;;;12.78;65.26
37066;BME280;22981;43.080;25.550;2023-09-30T05:14:10;99976.83;;;12.84;65.34
37066;BME280;22981;43.080;25.550;2023-09-30T05:16:38;99980.91;;;12.93;65.37
37066;BME280;22981;43.080;25.550;2023-09-30T05:19:05;99980.91;;;13.02;65.40
37066;BME280;22981;43.080;25.550;2023-09-30T05:21:34;99984.65;;;13.11;65.35
37066;BME280;22981;43.080;25.550;2023-09-30T05:24:04;99980.91;;;13.12;65.28
37066;BME280;22981;43.080;25.550;2023-09-30T05:26:32;99985.37;;;13.09;65.34
37066;BME280;22981;43.080;25.550;2023-09-30T05:28:59;99985.08;;;13.08;65.49
37066;BME280;22981;43.080;25.550;2023-09-30T05:31:27;99982.40;;;13.08;65.63
37066;BME280;22981;43.080;25.550;2023-09-30T05:33:55;99982.78;;;13.11;65.76
37066;BME280;22981;43.080;25.550;2023-09-30T05:36:23;99981.72;;;13.12;65.90
37066;BME280;22981;43.080;25.550;2023-09-30T05:38:50;99980.52;;;13.17;66.01
37066;BME280;22981;43.080;25.550;2023-09-30T05:41:18;99986.98;;;13.25;66.08
37066;BME280;22981;43.080;25.550;2023-09-30T05:43:47;99991.98;;;13.31;66.24
37066;BME280;22981;43.080;25.550;2023-09-30T05:46:15;99994.52;;;13.35;66.40
37066;BME280;22981;43.080;25.550;2023-09-30T05:48:43;99999.30;;;13.42;66.43
37066;BME280;22981;43.080;25.550;2023-09-30T05:51:10;99999.53;;;13.50;66.44
37066;BME280;22981;43.080;25.550;2023-09-30T05:53:40;99999.43;;;13.57;66.43
37066;BME280;22981;43.080;25.550;2023-09-30T05:56:08;100000.57;;;13.58;66.48
37066;BME280;22981;43.080;25.550;2023-09-30T05:58:37;99998.46;;;13.60;66.57
37066;BME280;22981;43.080;25.550;2023-09-30T06:01:09;99998.59;;;13.65;66.60
37066;BME280;22981;43.080;25.550;2023-09-30T06:03:40;99992.98;;;13.76;66.56
37066;BME280;22981;43.080;25.550;2023-09-30T06:06:12;99989.74;;;13.86;66.44
37066;BME280;22981;43.080;25.550;2023-09-30T06:08:40;99995.39;;;13.96;66.41
37066;BME280;22981;43.080;25.550;2023-09-30T06:11:07;99996.86;;;14.10;66.23
37066;BME280;22981;43.080;25.550;2023-09-30T06:13:36;99996.17;;;14.15;66.25
37066;BME280;22981;43.080;25.550;2023-09-30T06:16:04;99993.02;;;14.18;66.39
37066;BME280;22981;43.080;25.550;2023-09-30T06:18:32;99995.02;;;14.22;66.53
37066;BME280;22981;43.080;25.550;2023-09-30T06:21:01;99996.42;;;14.25;66.71
37066;BME280;22981;43.080;25.550;2023-09-30T06:23:30;99995.88;;;14.35;66.67
37066;BME280;22981;43.080;25.550;2023-09-30T06:25:59;99990.97;;;14.43;66.69
37066;BME280;22981;43.080;25.550;2023-09-30T06:28:29;99993.58;;;14.50;66.66
37066;BME280;22981;43.080;25.550;2023-09-30T06:30:58;99994.51;;;14.56;66.63
37066;BME280;22981;43.080;25.550;2023-09-30T06:33:26;99995.17;;;14.72;66.45
37066;BME280;22981;43.080;25.550;2023-09-30T06:35:55;99994.55;;;14.91;66.19
37066;BME280;22981;43.080;25.550;2023-09-30T06:38:24;99989.02;;;15.09;65.88
37066;BME280;22981;43.080;25.550;2023-09-30T06:40:51;99991.52;;;15.25;65.60
37066;BME280;22981;43.080;25.550;2023-09-30T06:43:20;99991.30;;;15.41;65.42
37066;BME280;22981;43.080;25.550;2023-09-30T06:45:49;99993.22;;;15.55;65.26
37066;BME280;22981;43.080;25.550;2023-09-30T06:48:16;99990.36;;;15.61;65.20
37066;BME280;22981;43.080;25.550;2023-09-30T06:50:45;99993.59;;;15.72;65.09
37066;BME280;22981;43.080;25.550;2023-09-30T06:53:17;99981.69;;;15.85;64.97
37066;BME280;22981;43.080;25.550;2023-09-30T06:55:45;99987.89;;;16.00;64.86
37066;BME280;22981;43.080;25.550;2023-09-30T06:58:13;99977.91;;;16.15;64.66
37066;BME280;22981;43.080;25.550;2023-09-30T07:00:42;99974.91;;;16.31;64.40
37066;BME280;22981;43.080;25.550;2023-09-30T07:03:10;99973.34;;;16.49;64.16
37066;BME280;22981;43.080;25.550;2023-09-30T07:05:37;99976.59;;;16.68;63.93
37066;BME280;22981;43.080;25.550;2023-09-30T07:08:06;99972.84;;;16.86;63.85
37066;BME280;22981;43.080;25.550;2023-09-30T07:10:34;99977.23;;;17.09;63.64
37066;BME280;22981;43.080;25.550;2023-09-30T07:13:05;99971.31;;;17.34;63.08
37066;BME280;22981;43.080;25.550;2023-09-30T07:15:34;99975.09;;;17.55;62.43
37066;BME280;22981;43.080;25.550;2023-09-30T07:18:02;99973.19;;;17.74;61.87
37066;BME280;22981;43.080;25.550;2023-09-30T07:20:29;99966.41;;;17.99;61.06
37066;BME280;22981;43.080;25.550;2023-09-30T07:22:59;99965.02;;;18.26;59.85
37066;BME280;22981;43.080;25.550;2023-09-30T07:25:30;99965.47;;;18.47;59.60
37066;BME280;22981;43.080;25.550;2023-09-30T07:28:01;99970.71;;;18.59;59.61
37066;BME280;22981;43.080;25.550;2023-09-30T07:30:29;99968.91;;;18.70;59.28
37066;BME280;22981;43.080;25.550;2023-09-30T07:32:56;99972.52;;;18.81;58.93
37066;BME280;22981;43.080;25.550;2023-09-30T07:35:24;99972.84;;;18.89;58.76
37066;BME280;22981;43.080;25.550;2023-09-30T07:37:51;99979.41;;;19.01;58.17
37066;BME280;22981;43.080;25.550;2023-09-30T07:40:19;99981.67;;;19.17;57.98
37066;BME280;22981;43.080;25.550;2023-09-30T07:42:47;99975.80;;;19.38;57.21
37066;BME280;22981;43.080;25.550;2023-09-30T07:45:16;99982.39;;;19.55;55.95
37066;BME280;22981;43.080;25.550;2023-09-30T07:47:46;99981.08;;;19.65;55.16
37066;BME280;22981;43.080;25.550;2023-09-30T07:50:15;99980.02;;;19.68;54.59
37066;BME280;22981;43.080;25.550;2023-09-30T07:52:44;99982.22;;;19.82;54.10
37066;BME280;22981;43.080;25.550;2023-09-30T07:55:12;99975.74;;;20.03;53.42
37066;BME280;22981;43.080;25.550;2023-09-30T07:57:41;99976.87;;;20.22;52.79
37066;BME280;22981;43.080;25.550;2023-09-30T08:00:13;99976.33;;;20.43;52.24
37066;BME280;22981;43.080;25.550;2023-09-30T08:02:45;99979.63;;;20.61;51.71
37066;BME280;22981;43.080;25.550;2023-09-30T08:05:13;99977.15;;;20.74;50.95
37066;BME280;22981;43.080;25.550;2023-09-30T08:07:40;99971.69;;;20.87;50.49
37066;BME280;22981;43.080;25.550;2023-09-30T08:10:08;99980.90;;;21.01;50.26
37066;BME280;22981;43.080;25.550;2023-09-30T08:12:37;99972.70;;;21.14;49.71
37066;BME280;22981;43.080;25.550;2023-09-30T08:15:06;99974.56;;;21.26;49.46
37066;BME280;22981;43.080;25.550;2023-09-30T08:17:33;99970.20;;;21.36;49.01
37066;BME280;22981;43.080;25.550;2023-09-30T08:20:01;99967.69;;;21.49;48.80
37066;BME280;22981;43.080;25.550;2023-09-30T08:22:30;99970.15;;;21.51;48.61
37066;BME280;22981;43.080;25.550;2023-09-30T08:24:58;99970.70;;;21.48;48.32
37066;BME280;22981;43.080;25.550;2023-09-30T08:27:26;99968.52;;;21.45;48.18
37066;BME280;22981;43.080;25.550;2023-09-30T08:29:54;99970.17;;;21.41;48.16
37066;BME280;22981;43.080;25.550;2023-09-30T08:32:21;99968.55;;;21.42;47.92
37066;BME280;22981;43.080;25.550;2023-09-30T08:34:49;99958.99;;;21.47;47.70
37066;BME280;22981;43.080;25.550;2023-09-30T08:37:16;99958.86;;;21.70;47.24
37066;BME280;22981;43.080;25.550;2023-09-30T08:39:44;99960.58;;;22.00;46.49
37066;BME280;22981;43.080;25.550;2023-09-30T08:42:12;99951.17;;;22.27;45.55
37066;BME280;22981;43.080;25.550;2023-09-30T08:44:40;99955.57;;;22.52;44.96
37066;BME280;22981;43.080;25.550;2023-09-30T08:47:08;99949.05;;;22.80;44.45
37066;BME280;22981;43.080;25.550;2023-09-30T08:49:37;99953.17;;;23.04;43.90
37066;BME280;22981;43.080;25.550;2023-09-30T08:52:10;99948.02;;;23.26;43.28
37066;BME280;22981;43.080;25.550;2023-09-30T08:54:39;99944.96;;;23.52;42.44
37066;BME280;22981;43.080;25.550;2023-09-30T08:57:11;99951.80;;;23.73;41.58
37066;BME280;22981;43.080;25.550;2023-09-30T08:59:41;99944.93;;;23.94;40.93
37066;BME280;22981;43.080;25.550;2023-09-30T09:02:10;99939.06;;;24.20;40.62
37066;BME280;22981;43.080;25.550;2023-09-30T09:04:38;99935.16;;;24.42;40.00
37066;BME280;22981;43.080;25.550;2023-09-30T09:07:05;99933.26;;;24.40;39.80
37066;BME280;22981;43.080;25.550;2023-09-30T09:09:33;99942.16;;;24.13;39.88
37066;BME280;22981;43.080;25.550;2023-09-30T09:12:00;99938.17;;;24.06;40.18
37066;BME280;22981;43.080;25.550;2023-09-30T09:14:38;99946.35;;;24.08;40.07
37066;BME280;22981;43.080;25.550;2023-09-30T09:17:08;99936.17;;;24.28;39.60
37066;BME280;22981;43.080;25.550;2023-09-30T09:19:35;99934.50;;;24.48;39.05
37066;BME280;22981;43.080;25.550;2023-09-30T09:22:04;99938.38;;;24.61;38.81
37066;BME280;22981;43.080;25.550;2023-09-30T09:24:34;99932.64;;;24.76;38.68
37066;BME280;22981;43.080;25.550;2023-09-30T09:27:09;99931.94;;;24.98;38.52
37066;BME280;22981;43.080;25.550;2023-09-30T09:29:38;99932.37;;;25.19;38.02
37066;BME280;22981;43.080;25.550;2023-09-30T09:32:14;99922.52;;;25.32;37.75
37066;BME280;22981;43.080;25.550;2023-09-30T09:34:44;99923.66;;;25.42;37.49
37066;BME280;22981;43.080;25.550;2023-09-30T09:37:17;99921.33;;;25.49;36.91
37066;BME280;22981;43.080;25.550;2023-09-30T09:39:54;99916.66;;;25.50;36.36
37066;BME280;22981;43.080;25.550;2023-09-30T09:42:30;99916.72;;;25.33;37.25
37066;BME280;22981;43.080;25.550;2023-09-30T09:44:59;99917.76;;;25.23;36.85
37066;BME280;22981;43.080;25.550;2023-09-30T09:47:29;99913.31;;;25.14;36.54
37066;BME280;22981;43.080;25.550;2023-09-30T09:49:59;99916.41;;;25.10;36.44
37066;BME280;22981;43.080;25.550;2023-09-30T09:52:27;99920.07;;;25.03;36.53
37066;BME280;22981;43.080;25.550;2023-09-30T09:54:55;99919.44;;;24.92;36.50
37066;BME280;22981;43.080;25.550;2023-09-30T09:57:25;99911.33;;;24.73;36.44
37066;BME280;22981;43.080;25.550;2023-09-30T09:59:54;99914.52;;;24.64;36.66
37066;BME280;22981;43.080;25.550;2023-09-30T10:02:23;99910.34;;;24.66;36.69
37066;BME280;22981;43.080;25.550;2023-09-30T10:04:51;99904.09;;;24.80;36.35
37066;BME280;22981;43.080;25.550;2023-09-30T10:07:28;99903.78;;;24.95;36.00
37066;BME280;22981;43.080;25.550;2023-09-30T10:09:51;99897.55;;;25.06;35.70
37066;BME280;22981;43.080;25.550;2023-09-30T10:12:19;99898.32;;;25.09;36.24
37066;BME280;22981;43.080;25.550;2023-09-30T10:14:49;99901.02;;;25.11;35.65
37066;BME280;22981;43.080;25.550;2023-09-30T10:17:17;99903.33;;;25.18;35.44
37066;BME280;22981;43.080;25.550;2023-09-30T10:20:03;99889.23;;;25.25;35.26
37066;BME280;22981;43.080;25.550;2023-09-30T10:22:33;99893.19;;;25.32;35.17
37066;BME280;22981;43.080;25.550;2023-09-30T10:25:02;99890.81;;;25.39;34.89
37066;BME280;22981;43.080;25.550;2023-09-30T10:27:32;99891.02;;;25.43;34.72
37066;BME280;22981;43.080;25.550;2023-09-30T10:40:54;99869.31;;;25.69;33.82
37066;BME280;22981;43.080;25.550;2023-09-30T10:43:36;99868.38;;;25.73;33.93
37066;BME280;22981;43.080;25.550;2023-09-30T10:48:51;99862.38;;;25.85;33.27
37066;BME280;22981;43.080;25.550;2023-09-30T10:51:20;99858.64;;;25.92;33.20
37066;BME280;22981;43.080;25.550;2023-09-30T10:53:52;99851.41;;;25.96;33.17
37066;BME280;22981;43.080;25.550;2023-09-30T10:56:22;99844.09;;;26.03;32.83
37066;BME280;22981;43.080;25.550;2023-09-30T10:58:53;99845.84;;;26.10;32.66
37066;BME280;22981;43.080;25.550;2023-09-30T11:01:23;99843.72;;;26.18;32.74
37066;BME280;22981;43.080;25.550;2023-09-30T11:03:58;99834.87;;;26.21;32.78
37066;BME280;22981;43.080;25.550;2023-09-30T11:06:23;99835.20;;;26.29;32.71
37066;BME280;22981;43.080;25.550;2023-09-30T11:08:56;99836.33;;;26.39;32.81
37066;BME280;22981;43.080;25.550;2023-09-30T11:11:36;99839.70;;;26.47;32.52
37066;BME280;22981;43.080;25.550;2023-09-30T11:14:16;99828.48;;;26.55;32.24
37066;BME280;22981;43.080;25.550;2023-09-30T11:16:43;99830.84;;;26.59;32.11
37066;BME280;22981;43.080;25.550;2023-09-30T11:19:12;99841.89;;;26.48;32.02
37066;BME280;22981;43.080;25.550;2023-09-30T11:21:40;99835.06;;;26.14;32.30
37066;BME280;22981;43.080;25.550;2023-09-30T11:24:10;99834.47;;;25.83;32.50
37066;BME280;22981;43.080;25.550;2023-09-30T11:26:38;99832.80;;;25.60;32.68
37066;BME280;22981;43.080;25.550;2023-09-30T11:29:17;99819.89;;;25.60;32.64
37066;BME280;22981;43.080;25.550;2023-09-30T11:31:50;99812.66;;;25.78;32.46
37066;BME280;22981;43.080;25.550;2023-09-30T11:34:16;99817.55;;;26.01;31.96
37066;BME280;22981;43.080;25.550;2023-09-30T11:36:50;99808.66;;;26.15;31.64
37066;BME280;22981;43.080;25.550;2023-09-30T11:39:25;99811.17;;;26.14;31.39
37066;BME280;22981;43.080;25.550;2023-09-30T11:41:54;99805.20;;;26.01;31.41
37066;BME280;22981;43.080;25.550;2023-09-30T11:44:25;99805.34;;;25.85;31.49
37066;BME280;22981;43.080;25.550;2023-09-30T11:47:00;99809.50;;;25.71;31.45
37066;BME280;22981;43.080;25.550;2023-09-30T11:52:09;99817.09;;;25.40;31.53
37066;BME280;22981;43.080;25.550;2023-09-30T11:54:41;99815.50;;;25.26;31.61
37066;BME280;22981;43.080;25.550;2023-09-30T12:00:07;99813.84;;;24.99;31.96
37066;BME280;22981;43.080;25.550;2023-09-30T12:02:36;99803.77;;;25.11;31.91
37066;BME280;22981;43.080;25.550;2023-09-30T12:05:05;99804.45;;;25.17;31.64
37066;BME280;22981;43.080;25.550;2023-09-30T12:07:35;99798.05;;;25.21;31.65
37066;BME280;22981;43.080;25.550;2023-09-30T12:10:02;99798.39;;;25.42;31.50
37066;BME280;22981;43.080;25.550;2023-09-30T12:12:30;99785.37;;;25.48;31.30
37066;BME280;22981;43.080;25.550;2023-09-30T12:14:58;99783.33;;;25.54;31.08
37066;BME280;22981;43.080;25.550;2023-09-30T12:17:25;99776.03;;;25.60;30.79
37066;BME280;22981;43.080;25.550;2023-09-30T12:19:53;99774.42;;;25.82;30.74
37066;BME280;22981;43.080;25.550;2023-09-30T12:22:20;99775.09;;;25.98;30.53
37066;BME280;22981;43.080;25.550;2023-09-30T12:24:48;99775.09;;;25.98;30.46
37066;BME280;22981;43.080;25.550;2023-09-30T12:27:16;99769.64;;;25.87;30.36
37066;BME280;22981;43.080;25.550;2023-09-30T12:29:43;99769.98;;;25.94;30.31
37066;BME280;22981;43.080;25.550;2023-09-30T12:32:12;99764.67;;;26.09;30.04
37066;BME280;22981;43.080;25.550;2023-09-30T12:34:40;99760.77;;;26.21;29.91
37066;BME280;22981;43.080;25.550;2023-09-30T12:37:08;99750.30;;;26.32;29.79
37066;BME280;22981;43.080;25.550;2023-09-30T12:39:35;99747.83;;;26.42;29.71
37066;BME280;22981;43.080;25.550;2023-09-30T12:42:03;99753.08;;;26.52;29.54
37066;BME280;22981;43.080;25.550;2023-09-30T12:44:32;99750.11;;;26.60;29.59
37066;BME280;22981;43.080;25.550;2023-09-30T12:47:00;99748.59;;;26.65;29.34
37066;BME280;22981;43.080;25.550;2023-09-30T12:49:29;99741.23;;;26.71;29.55
37066;BME280;22981;43.080;25.550;2023-09-30T12:51:56;99738.77;;;26.81;29.54
37066;BME280;22981;43.080;25.550;2023-09-30T12:54:25;99730.36;;;26.86;29.30
37066;BME280;22981;43.080;25.550;2023-09-30T12:56:53;99732.14;;;26.91;29.10
37066;BME280;22981;43.080;25.550;2023-09-30T12:59:20;99727.93;;;26.93;28.75
37066;BME280;22981;43.080;25.550;2023-09-30T13:01:49;99722.36;;;26.87;28.68
37066;BME280;22981;43.080;25.550;2023-09-30T13:04:17;99716.78;;;26.73;28.97
37066;BME280;22981;43.080;25.550;2023-09-30T13:06:45;99714.89;;;26.62;29.16
37066;BME280;22981;43.080;25.550;2023-09-30T13:09:12;99711.56;;;26.54;29.12
37066;BME280;22981;43.080;25.550;2023-09-30T13:11:40;99708.81;;;26.54;29.11
37066;BME280;22981;43.080;25.550;2023-09-30T13:14:08;99710.94;;;26.57;29.06
37066;BME280;22981;43.080;25.550;2023-09-30T13:16:35;99710.76;;;26.53;29.01
37066;BME280;22981;43.080;25.550;2023-09-30T13:19:04;99701.21;;;26.51;29.04